createdAt,value
2023-05-14T00:01:36.842Z,21.52
2023-05-14T00:04:04.751Z,25.70
2023-05-14T00:06:32.088Z,25.73
2023-05-14T00:08:59.279Z,23.70
2023-05-14T00:11:26.569Z,26.48
2023-05-14T00:13:53.825Z,23.35
2023-05-14T00:16:21.066Z,23.80
2023-05-14T00:18:48.447Z,24.60
2023-05-14T00:21:15.846Z,30.30
2023-05-14T00:23:43.114Z,24.63
2023-05-14T00:26:10.832Z,28.83
2023-05-14T00:28:40.329Z,26.27
2023-05-14T00:31:07.539Z,26.67
2023-05-14T00:33:35.148Z,24.80
2023-05-14T00:36:02.489Z,28.83
2023-05-14T00:38:29.791Z,27.15
2023-05-14T00:40:57.027Z,23.48
2023-05-14T00:43:25.204Z,25.60
2023-05-14T00:45:53.311Z,26.42
2023-05-14T00:48:21.232Z,24.95
2023-05-14T00:50:50.132Z,24.73
2023-05-14T00:53:17.612Z,24.40
2023-05-14T00:55:46.058Z,25.90
2023-05-14T00:58:14.075Z,22.83
2023-05-14T01:00:41.800Z,24.80
2023-05-14T01:03:09.851Z,26.80
2023-05-14T01:05:57.019Z,25.05
2023-05-14T01:08:40.496Z,22.90
2023-05-14T01:11:12.099Z,25.23
2023-05-14T01:13:51.158Z,29.15
2023-05-14T01:16:20.077Z,25.83
2023-05-14T01:18:49.326Z,25.73
2023-05-14T01:23:43.957Z,27.42
2023-05-14T01:26:11.363Z,27.77
2023-05-14T01:28:39.138Z,28.08
2023-05-14T01:31:12.917Z,24.35
2023-05-14T01:33:42.180Z,27.83
2023-05-14T01:36:09.918Z,27.20
2023-05-14T01:38:38.065Z,22.17
2023-05-14T01:41:05.686Z,25.00
2023-05-14T01:43:33.127Z,26.40
2023-05-14T01:46:00.472Z,32.05
2023-05-14T01:48:29.931Z,31.02
2023-05-14T01:50:57.245Z,28.42
2023-05-14T01:53:24.513Z,27.45
2023-05-14T01:55:51.742Z,27.42
2023-05-14T01:58:19.870Z,29.40
2023-05-14T02:00:47.267Z,27.98
2023-05-14T02:03:14.499Z,27.42
2023-05-14T02:05:41.848Z,31.20
2023-05-14T02:08:09.078Z,26.75
2023-05-14T02:10:36.308Z,28.63
2023-05-14T02:13:04.159Z,29.55
2023-05-14T02:15:31.472Z,27.30
2023-05-14T02:17:58.809Z,25.25
2023-05-14T02:20:26.249Z,26.88
2023-05-14T02:22:53.560Z,29.20
2023-05-14T02:25:21.478Z,32.85
2023-05-14T02:27:49.460Z,29.35
2023-05-14T02:30:16.822Z,27.63
2023-05-14T02:32:44.486Z,27.38
2023-05-14T02:35:11.806Z,28.92
2023-05-14T02:37:39.049Z,24.50
2023-05-14T02:40:06.622Z,30.10
2023-05-14T02:42:33.883Z,27.70
2023-05-14T02:45:01.505Z,28.50
2023-05-14T02:47:28.860Z,31.55
2023-05-14T02:49:56.402Z,28.85
2023-05-14T02:52:23.774Z,32.95
2023-05-14T02:54:50.965Z,27.60
2023-05-14T02:57:18.231Z,26.02
2023-05-14T02:59:45.523Z,32.95
2023-05-14T03:02:13.440Z,31.35
2023-05-14T03:04:41.221Z,29.55
2023-05-14T03:07:08.558Z,35.08
2023-05-14T03:09:38.132Z,35.83
2023-05-14T03:12:05.889Z,28.75
2023-05-14T03:14:33.194Z,35.72
2023-05-14T03:17:00.732Z,29.35
2023-05-14T03:19:27.970Z,30.48
2023-05-14T03:21:55.220Z,30.55
2023-05-14T03:24:22.521Z,35.05
2023-05-14T03:26:50.310Z,30.90
2023-05-14T03:29:18.154Z,30.35
2023-05-14T03:31:45.693Z,35.08
2023-05-14T03:34:12.982Z,31.70
2023-05-14T03:36:40.308Z,33.08
2023-05-14T03:39:07.591Z,29.85
2023-05-14T03:41:36.477Z,30.85
2023-05-14T03:44:03.801Z,30.05
2023-05-14T03:46:31.023Z,30.88
2023-05-14T03:48:58.443Z,27.95
2023-05-14T03:51:25.724Z,29.00
2023-05-14T03:53:52.961Z,31.83
2023-05-14T03:56:20.763Z,30.17
2023-05-14T03:58:47.985Z,29.63
2023-05-14T04:01:15.577Z,31.48
2023-05-14T04:03:42.960Z,32.10
2023-05-14T04:06:11.004Z,31.45
2023-05-14T04:08:38.279Z,30.55
2023-05-14T04:11:05.733Z,32.22
2023-05-14T04:13:32.965Z,30.92
2023-05-14T04:16:00.586Z,33.85
2023-05-14T04:18:27.880Z,31.83
2023-05-14T04:20:55.298Z,30.23
2023-05-14T04:23:22.683Z,37.15
2023-05-14T04:25:49.893Z,33.35
2023-05-14T04:28:19.835Z,34.40
2023-05-14T04:30:47.041Z,35.97
2023-05-14T04:33:14.258Z,36.53
2023-05-14T04:35:41.468Z,37.35
2023-05-14T04:38:09.998Z,34.72
2023-05-14T04:40:37.454Z,35.47
2023-05-14T04:43:04.711Z,41.38
2023-05-14T04:45:34.309Z,36.15
2023-05-14T04:48:01.862Z,34.15
2023-05-14T04:50:29.167Z,36.05
2023-05-14T04:52:56.410Z,39.90
2023-05-14T04:55:23.742Z,38.95
2023-05-14T04:57:51.167Z,39.10
2023-05-14T05:00:19.258Z,38.45
2023-05-14T05:02:46.577Z,38.08
2023-05-14T05:05:13.937Z,34.15
2023-05-14T05:07:41.266Z,38.60
2023-05-14T05:10:08.873Z,33.70
2023-05-14T05:12:36.189Z,39.78
2023-05-14T05:15:03.476Z,36.17
2023-05-14T05:17:31.016Z,38.15
2023-05-14T05:19:58.270Z,35.85
2023-05-14T05:22:25.869Z,35.25
2023-05-14T05:24:53.087Z,33.55
2023-05-14T05:27:22.059Z,36.03
2023-05-14T05:29:49.220Z,40.67
2023-05-14T05:32:16.517Z,42.13
2023-05-14T05:34:43.879Z,34.38
2023-05-14T05:37:12.828Z,33.95
2023-05-14T05:39:40.446Z,41.60
2023-05-14T05:42:08.232Z,38.75
2023-05-14T05:44:35.526Z,35.03
2023-05-14T05:47:02.918Z,43.55
2023-05-14T05:49:30.245Z,40.63
2023-05-14T05:51:57.766Z,35.25
2023-05-14T05:54:25.587Z,37.45
2023-05-14T05:56:52.864Z,32.28
2023-05-14T05:59:20.088Z,36.40
2023-05-14T06:01:48.139Z,39.38
2023-05-14T06:04:15.388Z,38.33
2023-05-14T06:06:42.638Z,36.08
2023-05-14T06:09:09.987Z,37.30
2023-05-14T06:11:37.234Z,37.67
2023-05-14T06:14:04.698Z,40.10
2023-05-14T06:16:31.992Z,34.47
2023-05-14T06:18:59.311Z,32.08
2023-05-14T06:21:26.599Z,33.35
2023-05-14T06:23:53.831Z,27.08
2023-05-14T06:26:21.197Z,30.70
2023-05-14T06:28:48.471Z,34.15
2023-05-14T06:31:15.792Z,29.77
2023-05-14T06:33:43.093Z,28.33
2023-05-14T06:36:10.595Z,24.70
2023-05-14T06:38:37.836Z,28.60
2023-05-14T06:41:05.081Z,26.77
2023-05-14T06:43:32.313Z,24.92
2023-05-14T06:45:59.940Z,31.65
2023-05-14T06:48:29.450Z,25.85
2023-05-14T06:50:56.828Z,26.42
2023-05-14T06:53:24.058Z,21.67
2023-05-14T06:55:51.287Z,26.73
2023-05-14T06:58:18.601Z,21.90
2023-05-14T07:00:46.037Z,26.75
2023-05-14T07:03:13.449Z,22.48
2023-05-14T07:05:41.261Z,19.90
2023-05-14T07:08:08.578Z,22.25
2023-05-14T07:10:35.891Z,22.80
2023-05-14T07:13:04.362Z,23.48
2023-05-14T07:15:31.695Z,22.27
2023-05-14T07:17:59.171Z,19.02
2023-05-14T07:20:26.858Z,20.05
2023-05-14T07:22:54.324Z,22.00
2023-05-14T07:25:21.685Z,17.88
2023-05-14T07:27:49.186Z,22.33
2023-05-14T07:30:16.553Z,16.55
2023-05-14T07:32:43.940Z,20.75
2023-05-14T07:35:11.881Z,20.80
2023-05-14T07:37:39.369Z,19.65
2023-05-14T07:40:06.995Z,19.30
2023-05-14T07:42:37.030Z,23.15
2023-05-14T07:45:04.977Z,18.63
2023-05-14T07:47:32.409Z,19.80
2023-05-14T07:49:59.922Z,15.85
2023-05-14T07:52:27.142Z,16.17
2023-05-14T07:54:54.996Z,17.83
2023-05-14T07:57:22.480Z,18.98
2023-05-14T07:59:50.445Z,18.92
2023-05-14T08:02:17.820Z,18.27
2023-05-14T08:04:45.422Z,16.33
2023-05-14T08:07:12.721Z,23.50
2023-05-14T08:09:40.018Z,18.52
2023-05-14T08:12:07.595Z,15.13
2023-05-14T08:14:35.081Z,15.50
2023-05-14T08:17:02.416Z,13.85
2023-05-14T08:19:29.703Z,12.43
2023-05-14T08:21:57.318Z,14.32
2023-05-14T08:24:24.588Z,17.05
2023-05-14T08:26:52.587Z,14.50
2023-05-14T08:29:19.834Z,16.98
2023-05-14T08:31:47.175Z,13.48
2023-05-14T08:34:14.515Z,19.40
2023-05-14T08:36:42.085Z,14.82
2023-05-14T08:39:09.338Z,19.10
2023-05-14T08:41:37.660Z,13.93
2023-05-14T08:44:11.196Z,15.87
2023-05-14T08:46:39.143Z,16.50
2023-05-14T08:49:29.597Z,22.20
2023-05-14T08:51:56.917Z,18.00
2023-05-14T08:54:25.282Z,17.73
2023-05-14T08:56:53.556Z,15.48
2023-05-14T08:59:22.040Z,17.17
2023-05-14T09:01:50.315Z,16.05
2023-05-14T09:04:20.717Z,15.50
2023-05-14T09:06:49.848Z,17.00
2023-05-14T09:11:47.944Z,16.25
2023-05-14T09:14:15.216Z,19.08
2023-05-14T09:16:43.587Z,15.02
2023-05-14T09:19:11.242Z,12.70
2023-05-14T09:21:38.607Z,12.80
2023-05-14T09:24:05.956Z,16.85
2023-05-14T09:26:33.779Z,13.75
2023-05-14T09:29:05.052Z,20.67
2023-05-14T09:31:33.136Z,57.35
2023-05-14T09:34:00.746Z,34.23
2023-05-14T09:36:27.985Z,91.10
2023-05-14T09:38:58.072Z,44.28
2023-05-14T09:41:25.772Z,171.30
2023-05-14T09:43:53.109Z,121.50
2023-05-14T09:46:20.358Z,154.30
2023-05-14T09:48:47.658Z,113.28
2023-05-14T09:51:14.938Z,169.10
2023-05-14T09:53:43.698Z,69.78
2023-05-14T09:56:11.181Z,30.00
2023-05-14T09:58:38.474Z,35.90
2023-05-14T10:01:06.614Z,36.53
2023-05-14T10:03:33.869Z,40.83
2023-05-14T10:06:04.621Z,14.95
2023-05-14T10:08:35.441Z,12.25
2023-05-14T10:11:04.254Z,11.50
2023-05-14T10:13:32.595Z,14.10
2023-05-14T10:16:09.863Z,14.10
2023-05-14T10:18:41.126Z,13.88
2023-05-14T10:21:08.814Z,10.02
2023-05-14T10:23:37.884Z,12.02
2023-05-14T10:26:05.837Z,13.40
2023-05-14T10:28:33.345Z,12.18
2023-05-14T10:31:01.021Z,15.13
2023-05-14T10:33:28.417Z,9.52
2023-05-14T10:35:55.609Z,11.80
2023-05-14T10:38:24.062Z,14.95
2023-05-14T10:40:54.064Z,14.93
2023-05-14T10:43:22.113Z,13.20
2023-05-14T10:45:49.392Z,14.32
2023-05-14T10:48:16.699Z,11.55
2023-05-14T10:50:44.228Z,13.73
2023-05-14T10:53:13.680Z,11.82
2023-05-14T10:55:40.948Z,11.93
2023-05-14T10:58:09.464Z,11.50
2023-05-14T11:00:38.880Z,12.13
2023-05-14T11:03:06.805Z,13.38
2023-05-14T11:05:37.252Z,9.53
2023-05-14T11:08:07.863Z,10.40
2023-05-14T11:10:35.990Z,11.20
2023-05-14T11:13:03.389Z,10.55
2023-05-14T11:15:31.211Z,11.70
2023-05-14T11:17:58.483Z,10.23
2023-05-14T11:20:26.057Z,10.63
2023-05-14T11:22:53.499Z,9.18
2023-05-14T11:25:21.726Z,12.02
2023-05-14T11:27:50.776Z,11.00
2023-05-14T11:30:20.591Z,9.68
2023-05-14T11:33:02.077Z,9.50
2023-05-14T11:35:31.666Z,9.85
2023-05-14T11:38:03.618Z,9.23
2023-05-14T11:40:33.207Z,9.77
2023-05-14T11:43:02.365Z,9.80
2023-05-14T11:45:34.237Z,8.30
2023-05-14T11:48:03.838Z,7.75
2023-05-14T11:50:33.649Z,8.80
2023-05-14T11:53:02.585Z,13.93
2023-05-14T11:55:30.399Z,8.25
2023-05-14T11:57:58.059Z,10.82
2023-05-14T12:00:27.249Z,10.20
2023-05-14T12:02:55.262Z,11.85
2023-05-14T12:05:22.678Z,7.35
2023-05-14T12:07:50.074Z,9.38
2023-05-14T12:10:17.316Z,12.48
2023-05-14T12:12:46.515Z,7.57
2023-05-14T12:15:14.835Z,8.07
2023-05-14T12:17:42.233Z,9.38
2023-05-14T12:20:13.526Z,8.32
2023-05-14T12:22:42.435Z,8.32
2023-05-14T12:25:13.919Z,7.60
2023-05-14T12:27:41.463Z,11.52
2023-05-14T12:32:42.967Z,9.38
2023-05-14T12:35:10.898Z,14.07
2023-05-14T12:37:39.948Z,8.77
2023-05-14T12:40:10.460Z,10.23
2023-05-14T12:42:38.197Z,8.65
2023-05-14T12:45:07.903Z,10.87
2023-05-14T12:47:36.109Z,11.32
2023-05-14T12:50:03.799Z,9.65
2023-05-14T12:55:01.449Z,10.90
2023-05-14T12:57:30.207Z,8.77
2023-05-14T13:02:24.583Z,13.18
2023-05-14T13:04:51.861Z,10.05
2023-05-14T13:07:19.057Z,9.27
2023-05-14T13:09:46.295Z,11.93
2023-05-14T13:12:13.596Z,10.90
2023-05-14T13:14:40.934Z,10.57
2023-05-14T13:17:08.394Z,10.65
2023-05-14T13:19:35.774Z,11.77
2023-05-14T13:22:03.034Z,13.82
2023-05-14T13:24:30.401Z,9.02
2023-05-14T13:26:57.677Z,9.88
2023-05-14T13:29:25.104Z,9.30
2023-05-14T13:31:53.026Z,8.50
2023-05-14T13:34:20.338Z,9.13
2023-05-14T13:36:49.682Z,11.13
2023-05-14T13:39:17.136Z,9.63
2023-05-14T13:41:44.672Z,12.00
2023-05-14T13:44:11.920Z,15.50
2023-05-14T13:46:39.199Z,10.40
2023-05-14T13:49:06.561Z,13.73
2023-05-14T13:51:33.857Z,11.98
2023-05-14T13:54:01.061Z,9.63
2023-05-14T13:56:28.402Z,9.10
2023-05-14T13:58:55.875Z,10.65
2023-05-14T14:01:23.423Z,13.32
2023-05-14T14:03:50.774Z,11.73
2023-05-14T14:06:18.041Z,10.35
2023-05-14T14:08:45.284Z,8.40
2023-05-14T14:11:13.670Z,9.10
2023-05-14T14:13:41.506Z,11.18
2023-05-14T14:16:08.983Z,9.40
2023-05-14T14:18:36.297Z,8.77
2023-05-14T14:21:03.680Z,13.25
2023-05-14T14:23:35.515Z,8.70
2023-05-14T14:26:04.839Z,12.63
2023-05-14T14:28:37.828Z,16.17
2023-05-14T14:31:06.156Z,15.70
2023-05-14T14:33:34.199Z,12.67
2023-05-14T14:36:06.558Z,11.10
2023-05-14T14:38:35.061Z,14.27
2023-05-14T14:41:05.187Z,12.80
2023-05-14T14:43:34.136Z,14.88
2023-05-14T14:46:03.494Z,12.60
2023-05-14T14:51:10.146Z,11.05
2023-05-14T14:53:38.629Z,9.70
2023-05-14T14:58:33.975Z,12.57
2023-05-14T15:01:01.533Z,14.23
2023-05-14T15:03:29.180Z,13.93
2023-05-14T15:05:56.537Z,12.80
2023-05-14T15:08:27.493Z,11.10
2023-05-14T15:10:55.608Z,9.27
2023-05-14T15:13:23.279Z,10.45
2023-05-14T15:15:51.525Z,13.13
2023-05-14T15:18:18.877Z,9.77
2023-05-14T15:20:47.668Z,12.10
2023-05-14T15:23:15.615Z,9.68
2023-05-14T15:25:42.859Z,12.32
2023-05-14T15:28:10.170Z,11.30
2023-05-14T15:30:37.703Z,12.38
2023-05-14T15:33:05.050Z,11.75
2023-05-14T15:35:32.571Z,14.60
2023-05-14T15:37:59.777Z,11.07
2023-05-14T15:40:27.928Z,13.50
2023-05-14T15:42:55.202Z,13.18
2023-05-14T15:45:22.541Z,11.43
2023-05-14T15:47:49.982Z,16.52
2023-05-14T15:50:19.030Z,12.95
2023-05-14T15:52:46.587Z,12.73
2023-05-14T15:55:14.795Z,14.60
2023-05-14T15:57:52.405Z,12.13
2023-05-14T16:00:36.503Z,14.52
2023-05-14T16:03:05.522Z,15.48
2023-05-14T16:05:33.698Z,11.70
2023-05-14T16:08:02.106Z,13.25
2023-05-14T16:10:29.501Z,15.93
2023-05-14T16:12:58.252Z,14.25
2023-05-14T16:15:26.856Z,13.52
2023-05-14T16:17:55.246Z,18.95
2023-05-14T16:22:50.584Z,14.57
2023-05-14T16:25:18.705Z,13.00
2023-05-14T16:27:49.303Z,16.52
2023-05-14T16:30:17.730Z,17.60
2023-05-14T16:32:49.443Z,18.55
2023-05-14T16:35:17.209Z,13.35
2023-05-14T16:37:44.765Z,19.73
2023-05-14T16:40:12.328Z,19.75
2023-05-14T16:42:39.680Z,19.48
2023-05-14T16:45:07.208Z,16.42
2023-05-14T16:47:34.502Z,20.90
2023-05-14T16:50:01.917Z,20.42
2023-05-14T16:52:29.265Z,16.52
2023-05-14T16:54:56.581Z,12.65
2023-05-14T16:57:24.046Z,16.30
2023-05-14T16:59:51.346Z,14.10
2023-05-14T17:02:18.555Z,13.27
2023-05-14T17:04:46.184Z,11.05
2023-05-14T17:07:13.545Z,9.77
2023-05-14T17:09:40.816Z,10.57
2023-05-14T17:12:08.299Z,10.27
2023-05-14T17:14:35.786Z,11.70
2023-05-14T17:17:03.058Z,12.35
2023-05-14T17:19:30.442Z,11.02
2023-05-14T17:21:57.771Z,13.50
2023-05-14T17:24:25.407Z,9.60
2023-05-14T17:26:52.890Z,10.15
2023-05-14T17:29:20.215Z,9.68
2023-05-14T17:31:49.475Z,10.82
2023-05-14T17:34:17.777Z,10.23
2023-05-14T17:36:45.040Z,12.55
2023-05-14T17:39:12.289Z,9.90
2023-05-14T17:41:48.009Z,10.20
2023-05-14T17:44:17.364Z,11.15
2023-05-14T17:46:46.840Z,11.85
2023-05-14T17:49:19.740Z,9.05
2023-05-14T17:51:53.321Z,24.67
2023-05-14T17:54:25.708Z,9.95
2023-05-14T17:57:13.213Z,12.77
2023-05-14T18:02:12.874Z,12.95
2023-05-14T18:04:44.359Z,7.68
2023-05-14T18:07:11.840Z,10.65
2023-05-14T18:09:41.376Z,13.23
2023-05-14T18:12:11.968Z,9.63
2023-05-14T18:14:45.330Z,11.80
2023-05-14T18:17:18.419Z,13.23
2023-05-14T18:19:52.126Z,11.63
2023-05-14T18:22:41.775Z,10.40
2023-05-14T18:25:11.207Z,10.15
2023-05-14T18:27:45.471Z,11.80
2023-05-14T18:30:21.535Z,12.18
2023-05-14T18:32:50.357Z,8.93
2023-05-14T18:35:18.335Z,11.43
2023-05-14T18:37:45.948Z,10.25
2023-05-14T18:40:16.905Z,9.15
2023-05-14T18:42:45.691Z,10.65
2023-05-14T18:45:13.034Z,9.23
2023-05-14T18:47:40.546Z,9.02
2023-05-14T18:50:08.497Z,10.07
2023-05-14T18:52:35.902Z,8.70
2023-05-14T18:55:03.175Z,12.23
2023-05-14T18:57:32.627Z,10.93
2023-05-14T19:00:03.922Z,12.38
2023-05-14T19:02:31.501Z,10.68
2023-05-14T19:04:58.839Z,11.15
2023-05-14T19:07:27.705Z,9.40
2023-05-14T19:09:54.953Z,10.63
2023-05-14T19:12:22.190Z,12.63
2023-05-14T19:14:49.413Z,12.13
2023-05-14T19:17:18.468Z,16.33
2023-05-14T19:19:47.381Z,14.05
2023-05-14T19:22:14.653Z,10.98
2023-05-14T19:24:41.890Z,11.07
2023-05-14T19:27:09.436Z,11.50
2023-05-14T19:29:36.981Z,14.00
2023-05-14T19:32:04.732Z,12.82
2023-05-14T19:34:32.146Z,15.77
2023-05-14T19:36:59.447Z,9.75
2023-05-14T19:39:26.783Z,19.17
2023-05-14T19:41:54.098Z,15.88
2023-05-14T19:44:21.441Z,11.93
2023-05-14T19:46:48.747Z,9.18
2023-05-14T19:49:15.991Z,14.23
2023-05-14T19:51:43.455Z,14.07
2023-05-14T19:54:10.791Z,13.55
2023-05-14T19:56:38.401Z,12.45
2023-05-14T19:59:05.640Z,12.20
2023-05-14T20:01:34.181Z,15.93
2023-05-14T20:04:02.256Z,12.70
2023-05-14T20:06:29.634Z,15.70
2023-05-14T20:08:56.901Z,15.02
2023-05-14T20:11:24.198Z,13.88
2023-05-14T20:13:51.451Z,14.20
2023-05-14T20:16:18.842Z,13.32
2023-05-14T20:18:46.326Z,13.57
2023-05-14T20:21:13.677Z,12.85
2023-05-14T20:23:41.117Z,20.17
2023-05-14T20:26:08.538Z,12.70
2023-05-14T20:28:35.838Z,15.82
2023-05-14T20:31:04.009Z,15.48
2023-05-14T20:33:31.368Z,14.10
2023-05-14T20:35:58.638Z,13.45
2023-05-14T20:38:29.173Z,13.75
2023-05-14T20:40:59.381Z,15.50
2023-05-14T20:43:29.474Z,15.43
2023-05-14T20:45:58.916Z,15.98
2023-05-14T20:48:26.282Z,17.90
2023-05-14T20:50:53.574Z,13.15
2023-05-14T20:53:21.104Z,16.05
2023-05-14T20:55:48.337Z,20.45
2023-05-14T20:58:15.919Z,18.15
2023-05-14T21:00:43.468Z,19.02
2023-05-14T21:03:10.993Z,17.73
2023-05-14T21:05:40.151Z,15.93
2023-05-14T21:08:07.529Z,17.23
2023-05-14T21:10:35.123Z,17.48
2023-05-14T21:13:02.358Z,19.27
2023-05-14T21:15:30.728Z,17.50
2023-05-14T21:17:58.147Z,19.10
2023-05-14T21:20:25.568Z,19.33
2023-05-14T21:22:52.904Z,17.92
2023-05-14T21:25:20.314Z,20.67
2023-05-14T21:27:47.637Z,18.45
2023-05-14T21:30:15.102Z,20.55
2023-05-14T21:32:42.502Z,20.55
2023-05-14T21:35:10.000Z,21.42
2023-05-14T21:37:39.320Z,21.40
2023-05-14T21:42:37.174Z,22.02
2023-05-14T21:45:04.777Z,26.67
2023-05-14T21:47:32.216Z,28.35
2023-05-14T21:49:59.644Z,26.40
2023-05-14T21:52:27.179Z,25.83
2023-05-14T21:54:54.629Z,31.70
2023-05-14T21:57:21.954Z,31.40
2023-05-14T21:59:49.282Z,29.55
2023-05-14T22:02:16.691Z,28.85
2023-05-14T22:04:44.043Z,33.30
2023-05-14T22:07:11.399Z,31.13
2023-05-14T22:09:38.686Z,31.80
2023-05-14T22:12:07.016Z,29.27
2023-05-14T22:14:34.434Z,33.50
2023-05-14T22:17:01.678Z,29.98
2023-05-14T22:19:29.203Z,33.40
2023-05-14T22:21:56.547Z,37.38
2023-05-14T22:24:23.805Z,32.53
2023-05-14T22:26:51.311Z,31.40
2023-05-14T22:29:18.602Z,35.25
2023-05-14T22:31:46.002Z,40.92
2023-05-14T22:34:13.336Z,33.65
2023-05-14T22:36:40.690Z,36.60
2023-05-14T22:39:08.081Z,36.55
2023-05-14T22:41:35.628Z,35.47
2023-05-14T22:44:02.830Z,38.80
2023-05-14T22:46:30.531Z,35.85
2023-05-14T22:48:57.821Z,36.75
2023-05-14T22:51:25.431Z,38.50
2023-05-14T22:53:52.771Z,37.72
2023-05-14T22:56:21.633Z,40.97
2023-05-14T22:58:48.894Z,39.60
2023-05-14T23:01:16.091Z,42.90
2023-05-14T23:03:43.358Z,46.17
2023-05-14T23:06:13.726Z,39.83
2023-05-14T23:08:41.231Z,41.47
2023-05-14T23:11:08.522Z,43.85
2023-05-14T23:13:35.885Z,46.10
2023-05-14T23:16:03.773Z,44.92
2023-05-14T23:18:31.234Z,43.50
2023-05-14T23:20:58.745Z,44.63
2023-05-14T23:23:26.047Z,42.78
2023-05-14T23:25:54.157Z,45.72
2023-05-14T23:28:21.572Z,45.75
2023-05-14T23:30:48.799Z,49.80
2023-05-14T23:33:16.255Z,43.08
2023-05-14T23:35:43.511Z,49.53
2023-05-14T23:38:10.784Z,55.97
2023-05-14T23:40:46.786Z,46.92
2023-05-14T23:43:25.494Z,46.10
2023-05-14T23:45:54.782Z,49.28
2023-05-14T23:48:22.074Z,45.05
2023-05-14T23:50:49.382Z,48.95
2023-05-14T23:53:16.726Z,48.20
2023-05-14T23:55:44.205Z,46.88
2023-05-14T23:58:11.442Z,48.45
